Gao Qiang — VRVQ8 — position and weather

sailwx.info

Track history (hours):
 
Tides and Currents Weather Stations Pressure Air Temp Water Temp Dewpoint Dewpoint Depression Visibility Wind Speed Wind Dir Waves Ship Positions

Gao Qiang

Last reported at 2017-May-12 21:36 UTC. Time now 2017-Jun-28 20:57 UTC.
Position S 19°36' E 056°31'.
Warning: this ship's position is 46 days out of date.

Length 186 m; draft 10.7 m.

Type: Cargo ship. MMSI: 477611000.

Date/timePositionNaut miles runAvg speedWind from/ knotsBaromVisibWave heightAir tempDewpointWater temp
2017-May-12 21:36S 19°36' E 056°31'410.9
2017-May-12 21:13S 19°38' E 056°28'410.9
2017-May-12 20:50S 19°41' E 056°24'  
2017-May-07 06:32S 29°37' E 032°04'311.2
2017-May-07 06:16S 29°38' E 032°00'311.1
2017-May-07 05:59S 29°39' E 031°57'510.9
2017-May-07 05:30S 29°41' E 031°51'510.8
2017-May-07 05:00S 29°42' E 031°45'510.8
2017-May-07 04:30S 29°43' E 031°39'612.4
2017-May-07 04:00S 29°45' E 031°32'612.5
2017-May-07 03:30S 29°46' E 031°25'612.3
2017-May-07 03:00S 29°48' E 031°19'612.4
2017-May-07 02:30S 29°50' E 031°12'611.9
2017-May-07 02:00S 29°51' E 031°05'3 5.5
2017-May-07 01:28S 29°52' E 031°02'0 0.3
2017-May-07 00:58S 29°52' E 031°02'0 0.0
2017-May-07 00:28S 29°52' E 031°02'0 0.0
2017-May-06 23:58S 29°52' E 031°02'0 0.0
2017-May-06 23:28S 29°52' E 031°02'0 0.0
2017-May-06 22:58S 29°52' E 031°02'0 0.0
2017-May-06 22:28S 29°52' E 031°02'0 0.0
2017-May-06 21:58S 29°52' E 031°02'0 0.0
2017-May-06 21:28S 29°52' E 031°02'0 0.0
2017-May-06 20:58S 29°52' E 031°02'0 0.0
2017-May-06 20:28S 29°52' E 031°02'0 0.1
2017-May-06 20:00S 29°52' E 031°02'1 1.6
2017-May-06 19:30S 29°53' E 031°03'3 5.3
2017-May-06 19:00S 29°51' E 031°05'3 6.1
2017-May-06 18:30S 29°50' E 031°08'2 4.8
2017-May-06 18:00S 29°51' E 031°11'0 0.9
2017-May-06 17:30S 29°51' E 031°11'2 3.3
2017-May-06 17:00S 29°51' E 031°09'611.4
2017-May-06 16:30S 29°56' E 031°05'714.1
2017-May-06 16:00S 30°02' E 031°01'714.1
2017-May-06 15:30S 30°08' E 030°57'714.0
2017-May-06 15:00S 30°15' E 030°53'1413.8
2017-May-06 14:00S 30°27' E 030°46'612.4
2017-May-06 13:30S 30°32' E 030°42'611.6
2017-May-06 13:00S 30°37' E 030°39'511.0
2017-May-06 12:30S 30°42' E 030°36'611.0
2017-May-06 12:00S 30°47' E 030°33'510.7
2017-May-06 11:30S 30°52' E 030°30'510.4
2017-May-06 11:00S 30°56' E 030°27'19 9.8
2017-May-06 09:05S 31°12' E 030°16'1 9.3
2017-May-06 09:00S 31°13' E 030°16'5 9.3
2017-May-06 08:30S 31°17' E 030°12'5 9.2
2017-May-06 08:00S 31°20' E 030°09'  
2017-May-03 15:34S 34°18' E 018°14'510.7
2017-May-03 15:06S 34°14' E 018°10'311.0
2017-May-03 14:52S 34°12' E 018°08'1211.4
2017-May-03 13:48S 34°03' E 017°59'  
Track history (hours):
 
Tides and Currents Weather Stations Pressure Air Temp Water Temp Dewpoint Dewpoint Depression Visibility Wind Speed Wind Dir Waves Ship Positions

Gao Qiang

Last reported at 2017-May-12 21:36 UTC. Time now 2017-Jun-28 20:57 UTC.
Position S 19°36' E 056°31'.
Warning: this ship's position is 46 days out of date.

Length 186 m; draft 10.7 m.

Type: Cargo ship. MMSI: 477611000.

Date/timePositionNaut miles runAvg speedWind from/ knotsBaromVisibWave heightAir tempDewpointWater temp
2017-May-12 21:36S 19°36' E 056°31'410.9
2017-May-12 21:13S 19°38' E 056°28'410.9
2017-May-12 20:50S 19°41' E 056°24'  
2017-May-07 06:32S 29°37' E 032°04'311.2
2017-May-07 06:16S 29°38' E 032°00'311.1
2017-May-07 05:59S 29°39' E 031°57'510.9
2017-May-07 05:30S 29°41' E 031°51'510.8
2017-May-07 05:00S 29°42' E 031°45'510.8
2017-May-07 04:30S 29°43' E 031°39'612.4
2017-May-07 04:00S 29°45' E 031°32'612.5
2017-May-07 03:30S 29°46' E 031°25'612.3
2017-May-07 03:00S 29°48' E 031°19'612.4
2017-May-07 02:30S 29°50' E 031°12'611.9
2017-May-07 02:00S 29°51' E 031°05'3 5.5
2017-May-07 01:28S 29°52' E 031°02'0 0.3
2017-May-07 00:58S 29°52' E 031°02'0 0.0
2017-May-07 00:28S 29°52' E 031°02'0 0.0
2017-May-06 23:58S 29°52' E 031°02'0 0.0
2017-May-06 23:28S 29°52' E 031°02'0 0.0
2017-May-06 22:58S 29°52' E 031°02'0 0.0
2017-May-06 22:28S 29°52' E 031°02'0 0.0
2017-May-06 21:58S 29°52' E 031°02'0 0.0
2017-May-06 21:28S 29°52' E 031°02'0 0.0
2017-May-06 20:58S 29°52' E 031°02'0 0.0
2017-May-06 20:28S 29°52' E 031°02'0 0.1
2017-May-06 20:00S 29°52' E 031°02'1 1.6
2017-May-06 19:30S 29°53' E 031°03'3 5.3
2017-May-06 19:00S 29°51' E 031°05'3 6.1
2017-May-06 18:30S 29°50' E 031°08'2 4.8
2017-May-06 18:00S 29°51' E 031°11'0 0.9
2017-May-06 17:30S 29°51' E 031°11'2 3.3
2017-May-06 17:00S 29°51' E 031°09'611.4
2017-May-06 16:30S 29°56' E 031°05'714.1
2017-May-06 16:00S 30°02' E 031°01'714.1
2017-May-06 15:30S 30°08' E 030°57'714.0
2017-May-06 15:00S 30°15' E 030°53'1413.8
2017-May-06 14:00S 30°27' E 030°46'612.4
2017-May-06 13:30S 30°32' E 030°42'611.6
2017-May-06 13:00S 30°37' E 030°39'511.0
2017-May-06 12:30S 30°42' E 030°36'611.0
2017-May-06 12:00S 30°47' E 030°33'510.7
2017-May-06 11:30S 30°52' E 030°30'510.4
2017-May-06 11:00S 30°56' E 030°27'19 9.8
2017-May-06 09:05S 31°12' E 030°16'1 9.3
2017-May-06 09:00S 31°13' E 030°16'5 9.3
2017-May-06 08:30S 31°17' E 030°12'5 9.2
2017-May-06 08:00S 31°20' E 030°09'  
2017-May-03 15:34S 34°18' E 018°14'510.7
2017-May-03 15:06S 34°14' E 018°10'311.0
2017-May-03 14:52S 34°12' E 018°08'1211.4
2017-May-03 13:48S 34°03' E 017°59'  

Dump ship's entire track history